sensor_id;sensor_type;location;lat;lon;timestamp;P1;durP1;ratioP1;P2;durP2;ratioP2
16662;SDS011;8445;51.270;9.434;2022-08-20T00:00:43;14.27;;;12.35;;
16662;SDS011;8445;51.270;9.434;2022-08-20T00:03:23;15.60;;;10.15;;
16662;SDS011;8445;51.270;9.434;2022-08-20T00:06:09;10.65;;;9.55;;
16662;SDS011;8445;51.270;9.434;2022-08-20T00:08:43;13.75;;;8.88;;
16662;SDS011;8445;51.270;9.434;2022-08-20T00:11:12;10.23;;;8.27;;
16662;SDS011;8445;51.270;9.434;2022-08-20T00:13:48;14.25;;;8.02;;
16662;SDS011;8445;51.270;9.434;2022-08-20T00:16:19;10.05;;;6.43;;
16662;SDS011;8445;51.270;9.434;2022-08-20T00:18:48;8.35;;;6.68;;
16662;SDS011;8445;51.270;9.434;2022-08-20T00:21:16;7.28;;;6.18;;
16662;SDS011;8445;51.270;9.434;2022-08-20T00:23:44;9.25;;;6.28;;
16662;SDS011;8445;51.270;9.434;2022-08-20T00:26:14;9.85;;;6.80;;
16662;SDS011;8445;51.270;9.434;2022-08-20T00:28:41;7.20;;;6.47;;
16662;SDS011;8445;51.270;9.434;2022-08-20T00:31:08;8.82;;;6.57;;
16662;SDS011;8445;51.270;9.434;2022-08-20T00:33:37;9.77;;;6.88;;
16662;SDS011;8445;51.270;9.434;2022-08-20T00:36:03;9.75;;;6.68;;
16662;SDS011;8445;51.270;9.434;2022-08-20T00:38:34;8.48;;;7.10;;
16662;SDS011;8445;51.270;9.434;2022-08-20T00:41:05;8.70;;;6.60;;
16662;SDS011;8445;51.270;9.434;2022-08-20T00:43:37;9.20;;;6.35;;
16662;SDS011;8445;51.270;9.434;2022-08-20T00:46:09;6.88;;;5.38;;
16662;SDS011;8445;51.270;9.434;2022-08-20T00:48:48;6.80;;;6.20;;
16662;SDS011;8445;51.270;9.434;2022-08-20T00:51:31;9.27;;;6.88;;
16662;SDS011;8445;51.270;9.434;2022-08-20T00:54:34;8.13;;;6.22;;
16662;SDS011;8445;51.270;9.434;2022-08-20T00:57:24;7.28;;;6.57;;
16662;SDS011;8445;51.270;9.434;2022-08-20T00:59:54;9.70;;;7.80;;
16662;SDS011;8445;51.270;9.434;2022-08-20T01:02:23;10.45;;;7.32;;
16662;SDS011;8445;51.270;9.434;2022-08-20T01:04:57;8.27;;;7.35;;
16662;SDS011;8445;51.270;9.434;2022-08-20T01:07:25;7.85;;;7.05;;
16662;SDS011;8445;51.270;9.434;2022-08-20T01:10:13;10.20;;;7.10;;
16662;SDS011;8445;51.270;9.434;2022-08-20T01:12:44;10.15;;;8.23;;
16662;SDS011;8445;51.270;9.434;2022-08-20T01:15:14;10.25;;;7.68;;
16662;SDS011;8445;51.270;9.434;2022-08-20T01:17:45;10.15;;;8.07;;
16662;SDS011;8445;51.270;9.434;2022-08-20T01:20:16;10.32;;;8.13;;
16662;SDS011;8445;51.270;9.434;2022-08-20T01:25:56;11.57;;;8.40;;
16662;SDS011;8445;51.270;9.434;2022-08-20T01:31:33;9.55;;;7.57;;
16662;SDS011;8445;51.270;9.434;2022-08-20T01:34:03;10.82;;;8.07;;
16662;SDS011;8445;51.270;9.434;2022-08-20T01:36:39;9.40;;;8.40;;
16662;SDS011;8445;51.270;9.434;2022-08-20T01:39:10;11.77;;;8.60;;
16662;SDS011;8445;51.270;9.434;2022-08-20T01:44:10;9.27;;;8.38;;
16662;SDS011;8445;51.270;9.434;2022-08-20T01:46:38;11.57;;;7.68;;
16662;SDS011;8445;51.270;9.434;2022-08-20T01:51:56;9.80;;;8.80;;
16662;SDS011;8445;51.270;9.434;2022-08-20T01:54:27;11.52;;;9.65;;
16662;SDS011;8445;51.270;9.434;2022-08-20T01:56:57;13.45;;;10.93;;
16662;SDS011;8445;51.270;9.434;2022-08-20T01:59:30;11.45;;;9.98;;
16662;SDS011;8445;51.270;9.434;2022-08-20T02:01:57;14.55;;;11.57;;
16662;SDS011;8445;51.270;9.434;2022-08-20T02:04:24;12.93;;;10.82;;
16662;SDS011;8445;51.270;9.434;2022-08-20T02:06:54;12.20;;;10.57;;
16662;SDS011;8445;51.270;9.434;2022-08-20T02:09:27;14.18;;;12.57;;
16662;SDS011;8445;51.270;9.434;2022-08-20T02:11:57;23.02;;;13.75;;
16662;SDS011;8445;51.270;9.434;2022-08-20T02:14:23;17.92;;;14.20;;
16662;SDS011;8445;51.270;9.434;2022-08-20T02:16:50;16.98;;;12.10;;
16662;SDS011;8445;51.270;9.434;2022-08-20T02:19:22;17.42;;;12.15;;
16662;SDS011;8445;51.270;9.434;2022-08-20T02:22:03;13.75;;;11.70;;
16662;SDS011;8445;51.270;9.434;2022-08-20T02:24:41;15.77;;;12.85;;
16662;SDS011;8445;51.270;9.434;2022-08-20T02:27:07;13.55;;;11.63;;
16662;SDS011;8445;51.270;9.434;2022-08-20T02:29:33;20.33;;;13.68;;
16662;SDS011;8445;51.270;9.434;2022-08-20T02:31:59;13.95;;;11.52;;
16662;SDS011;8445;51.270;9.434;2022-08-20T02:34:26;15.27;;;12.75;;
16662;SDS011;8445;51.270;9.434;2022-08-20T02:36:52;21.63;;;14.38;;
16662;SDS011;8445;51.270;9.434;2022-08-20T02:39:18;20.77;;;15.38;;
16662;SDS011;8445;51.270;9.434;2022-08-20T02:41:44;14.18;;;12.02;;
16662;SDS011;8445;51.270;9.434;2022-08-20T02:44:10;19.55;;;15.15;;
16662;SDS011;8445;51.270;9.434;2022-08-20T02:46:36;18.77;;;14.20;;
16662;SDS011;8445;51.270;9.434;2022-08-20T02:49:03;18.65;;;13.23;;
16662;SDS011;8445;51.270;9.434;2022-08-20T02:51:29;14.63;;;12.15;;
16662;SDS011;8445;51.270;9.434;2022-08-20T02:53:55;13.75;;;12.00;;
16662;SDS011;8445;51.270;9.434;2022-08-20T02:56:21;25.23;;;14.55;;
16662;SDS011;8445;51.270;9.434;2022-08-20T02:58:47;19.42;;;14.63;;
16662;SDS011;8445;51.270;9.434;2022-08-20T03:01:14;16.98;;;14.38;;
16662;SDS011;8445;51.270;9.434;2022-08-20T03:03:41;16.77;;;12.85;;
16662;SDS011;8445;51.270;9.434;2022-08-20T03:06:09;18.67;;;15.65;;
16662;SDS011;8445;51.270;9.434;2022-08-20T03:08:36;15.65;;;12.57;;
16662;SDS011;8445;51.270;9.434;2022-08-20T03:11:03;15.95;;;13.35;;
16662;SDS011;8445;51.270;9.434;2022-08-20T03:13:30;15.20;;;12.77;;
16662;SDS011;8445;51.270;9.434;2022-08-20T03:15:58;22.55;;;14.30;;
16662;SDS011;8445;51.270;9.434;2022-08-20T03:18:29;21.77;;;16.20;;
16662;SDS011;8445;51.270;9.434;2022-08-20T03:21:02;15.50;;;13.68;;
16662;SDS011;8445;51.270;9.434;2022-08-20T03:23:31;20.45;;;14.50;;
16662;SDS011;8445;51.270;9.434;2022-08-20T03:25:58;19.77;;;13.30;;
16662;SDS011;8445;51.270;9.434;2022-08-20T03:28:24;15.98;;;13.65;;
16662;SDS011;8445;51.270;9.434;2022-08-20T03:30:51;18.10;;;12.63;;
16662;SDS011;8445;51.270;9.434;2022-08-20T03:33:18;18.73;;;13.88;;
16662;SDS011;8445;51.270;9.434;2022-08-20T03:35:45;17.35;;;12.18;;
16662;SDS011;8445;51.270;9.434;2022-08-20T03:38:12;18.80;;;13.35;;
16662;SDS011;8445;51.270;9.434;2022-08-20T03:40:41;19.20;;;12.88;;
16662;SDS011;8445;51.270;9.434;2022-08-20T03:43:09;16.10;;;13.65;;
16662;SDS011;8445;51.270;9.434;2022-08-20T03:45:37;14.48;;;12.95;;
16662;SDS011;8445;51.270;9.434;2022-08-20T03:48:07;15.18;;;12.63;;
16662;SDS011;8445;51.270;9.434;2022-08-20T03:50:35;14.48;;;12.32;;
16662;SDS011;8445;51.270;9.434;2022-08-20T03:53:01;16.55;;;12.38;;
16662;SDS011;8445;51.270;9.434;2022-08-20T03:55:28;15.43;;;13.32;;
16662;SDS011;8445;51.270;9.434;2022-08-20T03:57:59;16.40;;;13.27;;
16662;SDS011;8445;51.270;9.434;2022-08-20T04:00:37;17.02;;;13.25;;
16662;SDS011;8445;51.270;9.434;2022-08-20T04:03:12;14.18;;;11.77;;
16662;SDS011;8445;51.270;9.434;2022-08-20T04:05:39;19.48;;;13.65;;
16662;SDS011;8445;51.270;9.434;2022-08-20T04:08:09;17.33;;;13.30;;
16662;SDS011;8445;51.270;9.434;2022-08-20T04:10:44;17.98;;;13.32;;
16662;SDS011;8445;51.270;9.434;2022-08-20T04:13:12;16.00;;;12.73;;
16662;SDS011;8445;51.270;9.434;2022-08-20T04:15:40;15.48;;;12.52;;
16662;SDS011;8445;51.270;9.434;2022-08-20T04:18:07;13.48;;;12.00;;
16662;SDS011;8445;51.270;9.434;2022-08-20T04:20:35;15.18;;;11.52;;
16662;SDS011;8445;51.270;9.434;2022-08-20T04:23:06;14.75;;;11.80;;
16662;SDS011;8445;51.270;9.434;2022-08-20T04:25:33;16.33;;;12.23;;
16662;SDS011;8445;51.270;9.434;2022-08-20T04:28:05;16.00;;;13.43;;
16662;SDS011;8445;51.270;9.434;2022-08-20T04:30:36;15.18;;;13.40;;
16662;SDS011;8445;51.270;9.434;2022-08-20T04:33:02;17.58;;;13.05;;
16662;SDS011;8445;51.270;9.434;2022-08-20T04:35:28;16.95;;;13.38;;
16662;SDS011;8445;51.270;9.434;2022-08-20T04:37:57;14.15;;;11.70;;
16662;SDS011;8445;51.270;9.434;2022-08-20T04:40:26;14.30;;;12.50;;
16662;SDS011;8445;51.270;9.434;2022-08-20T04:43:13;17.25;;;12.85;;
16662;SDS011;8445;51.270;9.434;2022-08-20T04:45:39;20.88;;;12.35;;
16662;SDS011;8445;51.270;9.434;2022-08-20T04:48:05;14.40;;;12.38;;
16662;SDS011;8445;51.270;9.434;2022-08-20T04:50:33;13.05;;;11.65;;
16662;SDS011;8445;51.270;9.434;2022-08-20T04:53:06;12.75;;;11.02;;
16662;SDS011;8445;51.270;9.434;2022-08-20T04:55:34;14.90;;;12.68;;
16662;SDS011;8445;51.270;9.434;2022-08-20T04:58:07;14.65;;;12.13;;
16662;SDS011;8445;51.270;9.434;2022-08-20T05:00:48;16.83;;;12.15;;
16662;SDS011;8445;51.270;9.434;2022-08-20T05:03:17;16.77;;;12.15;;
16662;SDS011;8445;51.270;9.434;2022-08-20T05:05:43;14.48;;;12.15;;
16662;SDS011;8445;51.270;9.434;2022-08-20T05:08:11;17.70;;;12.93;;
16662;SDS011;8445;51.270;9.434;2022-08-20T05:10:39;14.38;;;12.85;;
16662;SDS011;8445;51.270;9.434;2022-08-20T05:13:05;14.10;;;12.25;;
16662;SDS011;8445;51.270;9.434;2022-08-20T05:15:33;16.92;;;13.20;;
16662;SDS011;8445;51.270;9.434;2022-08-20T05:18:01;16.92;;;12.05;;
16662;SDS011;8445;51.270;9.434;2022-08-20T05:20:30;14.65;;;12.60;;
16662;SDS011;8445;51.270;9.434;2022-08-20T05:23:04;12.85;;;11.32;;
16662;SDS011;8445;51.270;9.434;2022-08-20T05:25:37;15.13;;;11.88;;
16662;SDS011;8445;51.270;9.434;2022-08-20T05:28:09;12.30;;;11.00;;
16662;SDS011;8445;51.270;9.434;2022-08-20T05:30:43;20.88;;;13.57;;
16662;SDS011;8445;51.270;9.434;2022-08-20T05:33:11;17.27;;;13.80;;
16662;SDS011;8445;51.270;9.434;2022-08-20T05:35:40;21.75;;;14.82;;
16662;SDS011;8445;51.270;9.434;2022-08-20T05:38:08;19.73;;;12.95;;
16662;SDS011;8445;51.270;9.434;2022-08-20T05:40:38;15.23;;;13.13;;
16662;SDS011;8445;51.270;9.434;2022-08-20T05:43:07;15.18;;;13.50;;
16662;SDS011;8445;51.270;9.434;2022-08-20T05:45:33;20.40;;;14.75;;
16662;SDS011;8445;51.270;9.434;2022-08-20T05:48:03;19.90;;;15.80;;
16662;SDS011;8445;51.270;9.434;2022-08-20T05:50:32;22.92;;;17.23;;
16662;SDS011;8445;51.270;9.434;2022-08-20T05:52:59;19.50;;;17.55;;
16662;SDS011;8445;51.270;9.434;2022-08-20T05:55:26;20.35;;;17.38;;
16662;SDS011;8445;51.270;9.434;2022-08-20T05:57:56;24.25;;;18.58;;
16662;SDS011;8445;51.270;9.434;2022-08-20T06:00:25;22.77;;;17.98;;
16662;SDS011;8445;51.270;9.434;2022-08-20T06:02:53;20.92;;;17.20;;
16662;SDS011;8445;51.270;9.434;2022-08-20T06:05:39;26.70;;;18.75;;
16662;SDS011;8445;51.270;9.434;2022-08-20T06:08:05;28.48;;;19.00;;
16662;SDS011;8445;51.270;9.434;2022-08-20T06:10:34;33.25;;;20.92;;
16662;SDS011;8445;51.270;9.434;2022-08-20T06:13:01;19.90;;;14.38;;
16662;SDS011;8445;51.270;9.434;2022-08-20T06:15:28;23.38;;;15.18;;
16662;SDS011;8445;51.270;9.434;2022-08-20T06:17:55;23.15;;;14.70;;
16662;SDS011;8445;51.270;9.434;2022-08-20T06:20:21;11.38;;;9.93;;
16662;SDS011;8445;51.270;9.434;2022-08-20T06:22:47;15.13;;;10.90;;
16662;SDS011;8445;51.270;9.434;2022-08-20T06:25:13;16.02;;;10.27;;
16662;SDS011;8445;51.270;9.434;2022-08-20T06:27:40;14.90;;;11.20;;
16662;SDS011;8445;51.270;9.434;2022-08-20T06:30:08;18.98;;;12.70;;
16662;SDS011;8445;51.270;9.434;2022-08-20T06:32:37;18.55;;;13.32;;
16662;SDS011;8445;51.270;9.434;2022-08-20T06:35:05;16.08;;;13.25;;
16662;SDS011;8445;51.270;9.434;2022-08-20T06:37:34;18.15;;;13.43;;
16662;SDS011;8445;51.270;9.434;2022-08-20T06:40:07;18.73;;;14.52;;
16662;SDS011;8445;51.270;9.434;2022-08-20T06:42:38;20.13;;;14.13;;
16662;SDS011;8445;51.270;9.434;2022-08-20T06:45:11;18.50;;;14.63;;
16662;SDS011;8445;51.270;9.434;2022-08-20T06:47:42;17.58;;;14.20;;
16662;SDS011;8445;51.270;9.434;2022-08-20T06:50:11;18.13;;;13.52;;
16662;SDS011;8445;51.270;9.434;2022-08-20T06:52:42;15.55;;;13.18;;
16662;SDS011;8445;51.270;9.434;2022-08-20T06:55:10;16.25;;;12.38;;
16662;SDS011;8445;51.270;9.434;2022-08-20T06:57:36;17.48;;;13.15;;
16662;SDS011;8445;51.270;9.434;2022-08-20T07:00:07;18.33;;;12.55;;
16662;SDS011;8445;51.270;9.434;2022-08-20T07:02:40;17.23;;;12.25;;
16662;SDS011;8445;51.270;9.434;2022-08-20T07:05:06;16.75;;;11.90;;
16662;SDS011;8445;51.270;9.434;2022-08-20T07:07:34;13.45;;;12.02;;
16662;SDS011;8445;51.270;9.434;2022-08-20T07:10:05;15.50;;;10.73;;
16662;SDS011;8445;51.270;9.434;2022-08-20T07:12:34;13.27;;;11.20;;
16662;SDS011;8445;51.270;9.434;2022-08-20T07:15:07;13.93;;;10.25;;
16662;SDS011;8445;51.270;9.434;2022-08-20T07:17:36;13.07;;;10.57;;
16662;SDS011;8445;51.270;9.434;2022-08-20T07:20:07;15.00;;;12.30;;
16662;SDS011;8445;51.270;9.434;2022-08-20T07:22:40;15.88;;;12.85;;
16662;SDS011;8445;51.270;9.434;2022-08-20T07:25:08;16.38;;;12.63;;
16662;SDS011;8445;51.270;9.434;2022-08-20T07:27:38;14.25;;;12.15;;
16662;SDS011;8445;51.270;9.434;2022-08-20T07:30:06;17.00;;;12.70;;
16662;SDS011;8445;51.270;9.434;2022-08-20T07:32:59;14.80;;;12.75;;
16662;SDS011;8445;51.270;9.434;2022-08-20T07:35:25;15.35;;;11.27;;
16662;SDS011;8445;51.270;9.434;2022-08-20T07:37:51;14.85;;;12.00;;
16662;SDS011;8445;51.270;9.434;2022-08-20T07:40:22;12.93;;;10.88;;
16662;SDS011;8445;51.270;9.434;2022-08-20T07:42:55;14.85;;;10.95;;
16662;SDS011;8445;51.270;9.434;2022-08-20T07:45:25;11.18;;;9.88;;
16662;SDS011;8445;51.270;9.434;2022-08-20T07:47:51;13.50;;;9.57;;
16662;SDS011;8445;51.270;9.434;2022-08-20T07:50:20;8.52;;;6.22;;
16662;SDS011;8445;51.270;9.434;2022-08-20T07:52:50;4.85;;;4.40;;
16662;SDS011;8445;51.270;9.434;2022-08-20T07:55:17;5.85;;;3.92;;
16662;SDS011;8445;51.270;9.434;2022-08-20T07:57:46;7.07;;;4.80;;
16662;SDS011;8445;51.270;9.434;2022-08-20T08:00:15;4.90;;;4.40;;
16662;SDS011;8445;51.270;9.434;2022-08-20T08:02:44;4.30;;;3.90;;
16662;SDS011;8445;51.270;9.434;2022-08-20T08:05:10;4.20;;;3.80;;
16662;SDS011;8445;51.270;9.434;2022-08-20T08:07:36;4.70;;;3.65;;
16662;SDS011;8445;51.270;9.434;2022-08-20T08:10:04;7.20;;;3.70;;
16662;SDS011;8445;51.270;9.434;2022-08-20T08:12:39;4.18;;;3.78;;
16662;SDS011;8445;51.270;9.434;2022-08-20T08:15:14;5.10;;;3.55;;
16662;SDS011;8445;51.270;9.434;2022-08-20T08:17:46;4.20;;;3.80;;
16662;SDS011;8445;51.270;9.434;2022-08-20T08:20:15;4.32;;;3.33;;
16662;SDS011;8445;51.270;9.434;2022-08-20T08:22:41;4.55;;;3.50;;
16662;SDS011;8445;51.270;9.434;2022-08-20T08:25:11;5.32;;;3.10;;
16662;SDS011;8445;51.270;9.434;2022-08-20T08:27:41;3.80;;;3.47;;
16662;SDS011;8445;51.270;9.434;2022-08-20T08:30:09;4.32;;;3.85;;
16662;SDS011;8445;51.270;9.434;2022-08-20T08:32:36;3.95;;;3.55;;
16662;SDS011;8445;51.270;9.434;2022-08-20T08:35:23;2.90;;;2.70;;
16662;SDS011;8445;51.270;9.434;2022-08-20T08:37:50;3.28;;;3.08;;
16662;SDS011;8445;51.270;9.434;2022-08-20T08:40:18;2.95;;;2.65;;
16662;SDS011;8445;51.270;9.434;2022-08-20T08:42:47;3.72;;;3.42;;
16662;SDS011;8445;51.270;9.434;2022-08-20T08:45:23;3.67;;;3.38;;
16662;SDS011;8445;51.270;9.434;2022-08-20T08:47:58;3.53;;;2.80;;
16662;SDS011;8445;51.270;9.434;2022-08-20T08:50:25;7.63;;;3.20;;
16662;SDS011;8445;51.270;9.434;2022-08-20T08:52:57;4.97;;;3.00;;
16662;SDS011;8445;51.270;9.434;2022-08-20T08:55:28;4.38;;;3.30;;
16662;SDS011;8445;51.270;9.434;2022-08-20T08:57:56;3.55;;;2.88;;
16662;SDS011;8445;51.270;9.434;2022-08-20T09:00:25;2.38;;;2.22;;
16662;SDS011;8445;51.270;9.434;2022-08-20T09:03:00;2.50;;;2.30;;
16662;SDS011;8445;51.270;9.434;2022-08-20T09:05:38;2.40;;;2.20;;
16662;SDS011;8445;51.270;9.434;2022-08-20T09:08:14;2.63;;;2.42;;
16662;SDS011;8445;51.270;9.434;2022-08-20T09:10:44;2.60;;;2.40;;
16662;SDS011;8445;51.270;9.434;2022-08-20T09:13:10;2.40;;;2.00;;
16662;SDS011;8445;51.270;9.434;2022-08-20T09:15:37;2.33;;;2.13;;
16662;SDS011;8445;51.270;9.434;2022-08-20T09:18:03;2.85;;;2.40;;
16662;SDS011;8445;51.270;9.434;2022-08-20T09:20:29;2.63;;;1.92;;
16662;SDS011;8445;51.270;9.434;2022-08-20T09:22:56;3.38;;;3.08;;
16662;SDS011;8445;51.270;9.434;2022-08-20T09:25:22;2.50;;;2.30;;
16662;SDS011;8445;51.270;9.434;2022-08-20T09:27:48;2.40;;;2.30;;
16662;SDS011;8445;51.270;9.434;2022-08-20T09:30:14;2.38;;;2.28;;
16662;SDS011;8445;51.270;9.434;2022-08-20T09:32:41;2.60;;;2.40;;
16662;SDS011;8445;51.270;9.434;2022-08-20T09:35:11;2.17;;;2.08;;
16662;SDS011;8445;51.270;9.434;2022-08-20T09:37:37;2.50;;;2.30;;
16662;SDS011;8445;51.270;9.434;2022-08-20T09:40:04;2.08;;;1.98;;
16662;SDS011;8445;51.270;9.434;2022-08-20T09:42:33;2.45;;;2.28;;
16662;SDS011;8445;51.270;9.434;2022-08-20T09:45:02;2.30;;;2.10;;
16662;SDS011;8445;51.270;9.434;2022-08-20T09:47:29;3.42;;;2.03;;
16662;SDS011;8445;51.270;9.434;2022-08-20T09:49:55;1.27;;;1.17;;
16662;SDS011;8445;51.270;9.434;2022-08-20T09:52:22;1.80;;;1.58;;
16662;SDS011;8445;51.270;9.434;2022-08-20T09:54:51;1.55;;;1.45;;
16662;SDS011;8445;51.270;9.434;2022-08-20T09:57:24;3.15;;;1.40;;
16662;SDS011;8445;51.270;9.434;2022-08-20T09:59:52;1.40;;;1.30;;
16662;SDS011;8445;51.270;9.434;2022-08-20T10:02:37;1.23;;;1.23;;
16662;SDS011;8445;51.270;9.434;2022-08-20T10:05:08;1.40;;;1.30;;
16662;SDS011;8445;51.270;9.434;2022-08-20T10:07:38;1.25;;;1.15;;
16662;SDS011;8445;51.270;9.434;2022-08-20T10:10:06;1.83;;;1.73;;
16662;SDS011;8445;51.270;9.434;2022-08-20T10:12:36;1.73;;;1.60;;
16662;SDS011;8445;51.270;9.434;2022-08-20T10:15:02;1.42;;;1.30;;
16662;SDS011;8445;51.270;9.434;2022-08-20T10:17:29;2.20;;;2.00;;
16662;SDS011;8445;51.270;9.434;2022-08-20T10:19:55;1.30;;;1.20;;
16662;SDS011;8445;51.270;9.434;2022-08-20T10:22:21;2.10;;;1.60;;
16662;SDS011;8445;51.270;9.434;2022-08-20T10:24:46;2.30;;;2.10;;
16662;SDS011;8445;51.270;9.434;2022-08-20T10:27:12;2.25;;;2.10;;
16662;SDS011;8445;51.270;9.434;2022-08-20T10:29:38;2.05;;;1.90;;
16662;SDS011;8445;51.270;9.434;2022-08-20T10:32:12;2.47;;;1.85;;
16662;SDS011;8445;51.270;9.434;2022-08-20T10:34:40;2.15;;;2.05;;
16662;SDS011;8445;51.270;9.434;2022-08-20T10:37:09;2.63;;;2.15;;
16662;SDS011;8445;51.270;9.434;2022-08-20T10:39:42;2.13;;;2.03;;
16662;SDS011;8445;51.270;9.434;2022-08-20T10:42:09;2.10;;;2.00;;
16662;SDS011;8445;51.270;9.434;2022-08-20T10:44:35;1.50;;;1.40;;
16662;SDS011;8445;51.270;9.434;2022-08-20T10:47:12;1.75;;;1.65;;
16662;SDS011;8445;51.270;9.434;2022-08-20T10:49:45;1.65;;;1.55;;
16662;SDS011;8445;51.270;9.434;2022-08-20T10:52:12;1.63;;;1.52;;
16662;SDS011;8445;51.270;9.434;2022-08-20T10:54:38;1.35;;;1.35;;
16662;SDS011;8445;51.270;9.434;2022-08-20T10:57:12;1.75;;;1.60;;
16662;SDS011;8445;51.270;9.434;2022-08-20T10:59:44;1.60;;;1.50;;
16662;SDS011;8445;51.270;9.434;2022-08-20T11:02:12;1.80;;;1.70;;
16662;SDS011;8445;51.270;9.434;2022-08-20T11:04:43;2.50;;;2.10;;
16662;SDS011;8445;51.270;9.434;2022-08-20T11:07:14;2.10;;;1.98;;
16662;SDS011;8445;51.270;9.434;2022-08-20T11:09:49;1.58;;;1.50;;
16662;SDS011;8445;51.270;9.434;2022-08-20T11:12:16;1.90;;;1.80;;
16662;SDS011;8445;51.270;9.434;2022-08-20T11:14:45;2.13;;;1.20;;
16662;SDS011;8445;51.270;9.434;2022-08-20T11:17:17;1.55;;;1.20;;
16662;SDS011;8445;51.270;9.434;2022-08-20T11:19:50;1.38;;;1.27;;
16662;SDS011;8445;51.270;9.434;2022-08-20T11:22:17;1.30;;;1.30;;
16662;SDS011;8445;51.270;9.434;2022-08-20T11:24:46;1.48;;;1.38;;
16662;SDS011;8445;51.270;9.434;2022-08-20T11:27:14;1.85;;;1.63;;
16662;SDS011;8445;51.270;9.434;2022-08-20T11:29:58;2.15;;;1.00;;
16662;SDS011;8445;51.270;9.434;2022-08-20T11:32:25;1.13;;;1.13;;
16662;SDS011;8445;51.270;9.434;2022-08-20T11:34:51;1.75;;;1.65;;
16662;SDS011;8445;51.270;9.434;2022-08-20T11:37:18;2.40;;;2.20;;
16662;SDS011;8445;51.270;9.434;2022-08-20T11:39:47;1.60;;;1.50;;
16662;SDS011;8445;51.270;9.434;2022-08-20T11:42:13;0.80;;;0.80;;
16662;SDS011;8445;51.270;9.434;2022-08-20T11:44:40;0.93;;;0.90;;
16662;SDS011;8445;51.270;9.434;2022-08-20T11:47:07;1.10;;;1.10;;
16662;SDS011;8445;51.270;9.434;2022-08-20T11:49:43;2.40;;;1.40;;
16662;SDS011;8445;51.270;9.434;2022-08-20T11:52:09;2.67;;;1.35;;
16662;SDS011;8445;51.270;9.434;2022-08-20T11:54:34;2.92;;;1.10;;
16662;SDS011;8445;51.270;9.434;2022-08-20T11:57:04;1.05;;;1.05;;
16662;SDS011;8445;51.270;9.434;2022-08-20T11:59:30;1.23;;;1.10;;
16662;SDS011;8445;51.270;9.434;2022-08-20T12:01:59;0.82;;;0.80;;
16662;SDS011;8445;51.270;9.434;2022-08-20T12:04:25;1.15;;;1.00;;
16662;SDS011;8445;51.270;9.434;2022-08-20T12:06:51;0.88;;;0.88;;
16662;SDS011;8445;51.270;9.434;2022-08-20T12:09:17;1.00;;;1.00;;
16662;SDS011;8445;51.270;9.434;2022-08-20T12:11:43;3.95;;;1.27;;
16662;SDS011;8445;51.270;9.434;2022-08-20T12:14:10;1.55;;;1.38;;
16662;SDS011;8445;51.270;9.434;2022-08-20T12:16:36;1.48;;;1.38;;
16662;SDS011;8445;51.270;9.434;2022-08-20T12:19:02;1.67;;;1.58;;
16662;SDS011;8445;51.270;9.434;2022-08-20T12:21:28;2.17;;;1.95;;
16662;SDS011;8445;51.270;9.434;2022-08-20T12:23:54;2.10;;;1.92;;
16662;SDS011;8445;51.270;9.434;2022-08-20T12:26:20;1.88;;;1.58;;
16662;SDS011;8445;51.270;9.434;2022-08-20T12:28:48;2.35;;;2.10;;
16662;SDS011;8445;51.270;9.434;2022-08-20T12:31:14;4.97;;;2.58;;
16662;SDS011;8445;51.270;9.434;2022-08-20T12:33:40;2.78;;;2.45;;
16662;SDS011;8445;51.270;9.434;2022-08-20T12:36:08;4.18;;;2.58;;
16662;SDS011;8445;51.270;9.434;2022-08-20T12:38:36;5.95;;;2.85;;
16662;SDS011;8445;51.270;9.434;2022-08-20T12:41:02;4.05;;;2.90;;
16662;SDS011;8445;51.270;9.434;2022-08-20T12:43:28;3.47;;;2.60;;
16662;SDS011;8445;51.270;9.434;2022-08-20T12:45:54;3.10;;;2.80;;
16662;SDS011;8445;51.270;9.434;2022-08-20T12:48:20;3.80;;;3.40;;
16662;SDS011;8445;51.270;9.434;2022-08-20T12:50:46;4.15;;;3.42;;
16662;SDS011;8445;51.270;9.434;2022-08-20T12:53:14;4.68;;;3.75;;
16662;SDS011;8445;51.270;9.434;2022-08-20T12:55:40;3.95;;;3.55;;
16662;SDS011;8445;51.270;9.434;2022-08-20T12:58:07;4.68;;;3.10;;
16662;SDS011;8445;51.270;9.434;2022-08-20T13:00:38;3.45;;;3.15;;
16662;SDS011;8445;51.270;9.434;2022-08-20T13:03:08;4.35;;;3.17;;
16662;SDS011;8445;51.270;9.434;2022-08-20T13:05:36;3.50;;;3.20;;
16662;SDS011;8445;51.270;9.434;2022-08-20T13:08:07;4.45;;;3.30;;
16662;SDS011;8445;51.270;9.434;2022-08-20T13:10:36;3.55;;;3.25;;
16662;SDS011;8445;51.270;9.434;2022-08-20T13:13:08;4.10;;;3.30;;
16662;SDS011;8445;51.270;9.434;2022-08-20T13:15:35;5.13;;;3.65;;
16662;SDS011;8445;51.270;9.434;2022-08-20T13:18:03;4.80;;;4.38;;
16662;SDS011;8445;51.270;9.434;2022-08-20T13:20:30;4.47;;;4.07;;
16662;SDS011;8445;51.270;9.434;2022-08-20T13:22:57;5.28;;;4.57;;
16662;SDS011;8445;51.270;9.434;2022-08-20T13:25:23;6.10;;;4.03;;
16662;SDS011;8445;51.270;9.434;2022-08-20T13:27:53;5.45;;;4.60;;
16662;SDS011;8445;51.270;9.434;2022-08-20T13:30:22;4.22;;;3.83;;
16662;SDS011;8445;51.270;9.434;2022-08-20T13:32:49;3.53;;;3.08;;
16662;SDS011;8445;51.270;9.434;2022-08-20T13:35:15;4.15;;;3.72;;
16662;SDS011;8445;51.270;9.434;2022-08-20T13:37:41;3.72;;;3.42;;
16662;SDS011;8445;51.270;9.434;2022-08-20T13:40:07;3.47;;;3.17;;
16662;SDS011;8445;51.270;9.434;2022-08-20T13:42:34;4.32;;;3.92;;
16662;SDS011;8445;51.270;9.434;2022-08-20T13:45:01;4.22;;;3.83;;
16662;SDS011;8445;51.270;9.434;2022-08-20T13:47:29;3.70;;;3.10;;
16662;SDS011;8445;51.270;9.434;2022-08-20T13:50:01;3.00;;;2.67;;
16662;SDS011;8445;51.270;9.434;2022-08-20T13:52:36;4.15;;;2.85;;
16662;SDS011;8445;51.270;9.434;2022-08-20T13:55:03;2.83;;;2.30;;
16662;SDS011;8445;51.270;9.434;2022-08-20T13:57:32;2.75;;;2.55;;
16662;SDS011;8445;51.270;9.434;2022-08-20T13:59:58;2.80;;;2.60;;
16662;SDS011;8445;51.270;9.434;2022-08-20T14:02:24;3.60;;;3.25;;
16662;SDS011;8445;51.270;9.434;2022-08-20T14:04:51;4.97;;;3.33;;
16662;SDS011;8445;51.270;9.434;2022-08-20T14:07:21;2.63;;;2.42;;
16662;SDS011;8445;51.270;9.434;2022-08-20T14:09:53;2.42;;;2.22;;
16662;SDS011;8445;51.270;9.434;2022-08-20T14:12:23;2.47;;;2.28;;
16662;SDS011;8445;51.270;9.434;2022-08-20T14:14:54;2.47;;;2.20;;
16662;SDS011;8445;51.270;9.434;2022-08-20T14:19:56;3.42;;;2.90;;
16662;SDS011;8445;51.270;9.434;2022-08-20T14:22:34;4.53;;;4.07;;
16662;SDS011;8445;51.270;9.434;2022-08-20T14:25:03;4.90;;;3.08;;
16662;SDS011;8445;51.270;9.434;2022-08-20T14:27:34;4.78;;;4.28;;
16662;SDS011;8445;51.270;9.434;2022-08-20T14:30:06;7.80;;;4.93;;
16662;SDS011;8445;51.270;9.434;2022-08-20T14:32:37;6.97;;;5.40;;
16662;SDS011;8445;51.270;9.434;2022-08-20T14:35:04;2.72;;;2.53;;
16662;SDS011;8445;51.270;9.434;2022-08-20T14:37:33;3.40;;;2.83;;
16662;SDS011;8445;51.270;9.434;2022-08-20T14:40:12;3.58;;;2.92;;
16662;SDS011;8445;51.270;9.434;2022-08-20T14:42:41;3.35;;;2.85;;
16662;SDS011;8445;51.270;9.434;2022-08-20T14:45:09;2.55;;;2.20;;
16662;SDS011;8445;51.270;9.434;2022-08-20T14:47:38;2.75;;;2.00;;
16662;SDS011;8445;51.270;9.434;2022-08-20T14:50:11;2.70;;;2.10;;
16662;SDS011;8445;51.270;9.434;2022-08-20T14:52:43;2.17;;;2.08;;
16662;SDS011;8445;51.270;9.434;2022-08-20T14:55:11;2.45;;;1.80;;
16662;SDS011;8445;51.270;9.434;2022-08-20T14:57:41;2.70;;;2.50;;
16662;SDS011;8445;51.270;9.434;2022-08-20T15:00:10;2.70;;;2.50;;
16662;SDS011;8445;51.270;9.434;2022-08-20T15:02:42;2.33;;;2.10;;
16662;SDS011;8445;51.270;9.434;2022-08-20T15:05:10;2.15;;;1.95;;
16662;SDS011;8445;51.270;9.434;2022-08-20T15:07:38;2.25;;;2.08;;
16662;SDS011;8445;51.270;9.434;2022-08-20T15:10:09;3.15;;;1.88;;
16662;SDS011;8445;51.270;9.434;2022-08-20T15:12:39;2.00;;;1.83;;
16662;SDS011;8445;51.270;9.434;2022-08-20T15:15:07;2.13;;;2.03;;
16662;SDS011;8445;51.270;9.434;2022-08-20T15:17:40;2.83;;;2.15;;